RYR7731 EPKK-LEBL
Flight info
| Callsign | RYR7731 |
|---|---|
| Flight time | 2h 31m |
| Altitude | 38000 |
| Route | BABKO DCT VADEX DCT KOPAT DCT MAREG DCT NURMI DCT INGID DCT DETSA/N0453F370 DCT SUMIR DCT GEKBA DCT VAMTU DCT KOLON DCT GANGU DCT PADKO DCT DIVKO DCT NILDU DCT BISBA |
| Aircraft | B38M/M-SADE3FGIJ1LRWY/SB1 |
Departure
| Time | 2026-05-07 10:21 |
|---|---|
| Airport | Kraków John Paul II International Airport (EPKK) |
Arrival
| Time | 2026-05-07 12:52 |
|---|---|
| Airport | Josep Tarradellas Barcelona-El Prat Airport (LEBL) |
| Time | Latitude | Longitude | Altitude | Speed | Heading |
|---|---|---|---|---|---|
| 2026-05-07 10:01 | 50.07294 | 19.79861 | 802 ft | 0 kts | 168° |
| 2026-05-07 10:14 | 50.07308 | 19.79856 | 802 ft | 4 kts | 168° |
| 2026-05-07 10:14 | 50.07335 | 19.79847 | 802 ft | 4 kts | 168° |
| 2026-05-07 10:15 | 50.07355 | 19.79839 | 802 ft | 4 kts | 143° |
| 2026-05-07 10:15 | 50.07365 | 19.79808 | 802 ft | 4 kts | 91° |
| 2026-05-07 10:15 | 50.07364 | 19.79778 | 802 ft | 0 kts | 78° |
| 2026-05-07 10:18 | 50.07368 | 19.79806 | 802 ft | 7 kts | 78° |
| 2026-05-07 10:18 | 50.07382 | 19.79911 | 802 ft | 12 kts | 78° |
| 2026-05-07 10:18 | 50.07401 | 19.80047 | 802 ft | 14 kts | 77° |
| 2026-05-07 10:19 | 50.07423 | 19.80200 | 802 ft | 15 kts | 77° |
| 2026-05-07 10:19 | 50.07456 | 19.80361 | 802 ft | 16 kts | 43° |
| 2026-05-07 10:19 | 50.07557 | 19.80419 | 802 ft | 15 kts | 16° |
| 2026-05-07 10:19 | 50.07661 | 19.80398 | 802 ft | 16 kts | 347° |
| 2026-05-07 10:20 | 50.07773 | 19.80359 | 802 ft | 16 kts | 348° |
| 2026-05-07 10:20 | 50.07889 | 19.80322 | 802 ft | 18 kts | 348° |
| 2026-05-07 10:20 | 50.08003 | 19.80276 | 802 ft | 12 kts | 321° |
| 2026-05-07 10:20 | 50.08003 | 19.80131 | 803 ft | 21 kts | 257° |
| 2026-05-07 10:21 | 50.07918 | 19.79522 | 803 ft | 94 kts | 257° |
| 2026-05-07 10:21 | 50.07736 | 19.78199 | 816 ft | 152 kts | 259° |
| 2026-05-07 10:21 | 50.07513 | 19.76514 | 1421 ft | 162 kts | 259° |
| 2026-05-07 10:21 | 50.07257 | 19.74770 | 2244 ft | 166 kts | 257° |
| 2026-05-07 10:22 | 50.06990 | 19.72915 | 2817 ft | 189 kts | 257° |
| 2026-05-07 10:22 | 50.06694 | 19.70837 | 3570 ft | 199 kts | 257° |
| 2026-05-07 10:22 | 50.06260 | 19.68703 | 4334 ft | 214 kts | 240° |
| 2026-05-07 10:22 | 50.05202 | 19.66992 | 4977 ft | 235 kts | 214° |
| 2026-05-07 10:23 | 50.03668 | 19.65840 | 5648 ft | 256 kts | 201° |
| 2026-05-07 10:23 | 50.01913 | 19.65053 | 6572 ft | 261 kts | 199° |
| 2026-05-07 10:23 | 50.00160 | 19.64254 | 7555 ft | 264 kts | 199° |
| 2026-05-07 10:23 | 49.98378 | 19.63450 | 8485 ft | 268 kts | 199° |
| 2026-05-07 10:24 | 49.96582 | 19.62644 | 9470 ft | 270 kts | 198° |
| 2026-05-07 10:24 | 49.94754 | 19.61826 | 10256 ft | 279 kts | 198° |
| 2026-05-07 10:24 | 49.92829 | 19.60965 | 10708 ft | 298 kts | 198° |
| 2026-05-07 10:24 | 49.90767 | 19.60042 | 11137 ft | 316 kts | 198° |
| 2026-05-07 10:25 | 49.88605 | 19.59077 | 11661 ft | 329 kts | 198° |
| 2026-05-07 10:25 | 49.86397 | 19.58095 | 12485 ft | 331 kts | 198° |
| 2026-05-07 10:25 | 49.84168 | 19.57104 | 13255 ft | 336 kts | 198° |
| 2026-05-07 10:25 | 49.81912 | 19.56102 | 13992 ft | 339 kts | 198° |
| 2026-05-07 10:26 | 49.79622 | 19.55088 | 14660 ft | 343 kts | 198° |
| 2026-05-07 10:26 | 49.77328 | 19.54072 | 15362 ft | 345 kts | 198° |
| 2026-05-07 10:26 | 49.75020 | 19.53052 | 16032 ft | 348 kts | 198° |
| 2026-05-07 10:26 | 49.72673 | 19.52014 | 16690 ft | 350 kts | 198° |
| 2026-05-07 10:27 | 49.70319 | 19.50974 | 17332 ft | 352 kts | 198° |
| 2026-05-07 10:27 | 49.67957 | 19.49933 | 17937 ft | 355 kts | 198° |
| 2026-05-07 10:27 | 49.65574 | 19.48882 | 18497 ft | 358 kts | 198° |
| 2026-05-07 10:27 | 49.63173 | 19.47794 | 18990 ft | 360 kts | 202° |
| 2026-05-07 10:28 | 49.61011 | 19.45898 | 19528 ft | 359 kts | 220° |
| 2026-05-07 10:28 | 49.59272 | 19.43133 | 20016 ft | 362 kts | 228° |
| 2026-05-07 10:28 | 49.57602 | 19.40207 | 20502 ft | 365 kts | 229° |
| 2026-05-07 10:28 | 49.55939 | 19.37231 | 21025 ft | 367 kts | 229° |
| 2026-05-07 10:29 | 49.54252 | 19.34179 | 21506 ft | 371 kts | 229° |
| 2026-05-07 10:29 | 49.52584 | 19.31137 | 21961 ft | 374 kts | 229° |
| 2026-05-07 10:29 | 49.50901 | 19.28062 | 22507 ft | 376 kts | 229° |
| 2026-05-07 10:30 | 49.47509 | 19.21857 | 23489 ft | 381 kts | 229° |
| 2026-05-07 10:30 | 49.45799 | 19.18732 | 23922 ft | 384 kts | 229° |
| 2026-05-07 10:30 | 49.44072 | 19.15582 | 24359 ft | 386 kts | 229° |
| 2026-05-07 10:30 | 49.42336 | 19.12419 | 24779 ft | 389 kts | 229° |
| 2026-05-07 10:31 | 49.40588 | 19.09236 | 25205 ft | 391 kts | 229° |
| 2026-05-07 10:31 | 49.38833 | 19.06045 | 25652 ft | 392 kts | 229° |
| 2026-05-07 10:31 | 49.37062 | 19.02829 | 26059 ft | 395 kts | 229° |
| 2026-05-07 10:31 | 49.35284 | 18.99603 | 26468 ft | 397 kts | 229° |
| 2026-05-07 10:32 | 49.33496 | 18.96362 | 26866 ft | 399 kts | 229° |
| 2026-05-07 10:32 | 49.31693 | 18.93101 | 27250 ft | 402 kts | 229° |
| 2026-05-07 10:32 | 49.29881 | 18.89826 | 27624 ft | 404 kts | 229° |
| 2026-05-07 10:32 | 49.28034 | 18.86494 | 28007 ft | 406 kts | 229° |
| 2026-05-07 10:33 | 49.26200 | 18.83188 | 28402 ft | 408 kts | 229° |
| 2026-05-07 10:33 | 49.24361 | 18.79877 | 28760 ft | 410 kts | 229° |
| 2026-05-07 10:33 | 49.22503 | 18.76534 | 29105 ft | 413 kts | 229° |
| 2026-05-07 10:33 | 49.20637 | 18.73185 | 29469 ft | 415 kts | 229° |
| 2026-05-07 10:34 | 49.18763 | 18.69823 | 29816 ft | 417 kts | 229° |
| 2026-05-07 10:34 | 49.16876 | 18.66444 | 30134 ft | 419 kts | 229° |
| 2026-05-07 10:34 | 49.14984 | 18.63060 | 30422 ft | 421 kts | 229° |
| 2026-05-07 10:34 | 49.13080 | 18.59657 | 30712 ft | 422 kts | 229° |
| 2026-05-07 10:35 | 49.11164 | 18.56239 | 30987 ft | 424 kts | 229° |
| 2026-05-07 10:35 | 49.09246 | 18.52822 | 31336 ft | 424 kts | 229° |
| 2026-05-07 10:35 | 49.07328 | 18.49408 | 31724 ft | 423 kts | 229° |
| 2026-05-07 10:35 | 49.05420 | 18.46017 | 32110 ft | 421 kts | 229° |
| 2026-05-07 10:36 | 49.03512 | 18.42630 | 32521 ft | 420 kts | 229° |
| 2026-05-07 10:36 | 49.01612 | 18.39262 | 32917 ft | 419 kts | 229° |
| 2026-05-07 10:36 | 48.99713 | 18.35901 | 33352 ft | 417 kts | 229° |
| 2026-05-07 10:36 | 48.97829 | 18.32568 | 33755 ft | 415 kts | 229° |
| 2026-05-07 10:37 | 48.95946 | 18.29244 | 34090 ft | 415 kts | 229° |
| 2026-05-07 10:37 | 48.94064 | 18.25924 | 34386 ft | 414 kts | 229° |
| 2026-05-07 10:37 | 48.92181 | 18.22607 | 34703 ft | 413 kts | 229° |
| 2026-05-07 10:37 | 48.90306 | 18.19309 | 34978 ft | 413 kts | 229° |
| 2026-05-07 10:38 | 48.88427 | 18.16006 | 35234 ft | 413 kts | 229° |
| 2026-05-07 10:38 | 48.86545 | 18.12704 | 35519 ft | 413 kts | 229° |
| 2026-05-07 10:38 | 48.84669 | 18.09416 | 35816 ft | 412 kts | 229° |
| 2026-05-07 10:38 | 48.82785 | 18.06118 | 35967 ft | 413 kts | 229° |
| 2026-05-07 10:39 | 48.79025 | 17.99550 | 35989 ft | 411 kts | 229° |
| 2026-05-07 10:39 | 48.75280 | 17.93021 | 35991 ft | 411 kts | 229° |
| 2026-05-07 10:40 | 48.71523 | 17.86489 | 35980 ft | 411 kts | 229° |
| 2026-05-07 10:40 | 48.68378 | 17.81035 | 35996 ft | 411 kts | 229° |
| 2026-05-07 10:41 | 48.64622 | 17.74533 | 35998 ft | 411 kts | 229° |
| 2026-05-07 10:41 | 48.60860 | 17.68039 | 35997 ft | 410 kts | 229° |
| 2026-05-07 10:42 | 48.57098 | 17.61560 | 35992 ft | 411 kts | 229° |
| 2026-05-07 10:42 | 48.53334 | 17.55093 | 35976 ft | 410 kts | 229° |
| 2026-05-07 10:43 | 48.49557 | 17.48620 | 35975 ft | 410 kts | 229° |
| 2026-05-07 10:43 | 48.45786 | 17.42173 | 35971 ft | 410 kts | 229° |
| 2026-05-07 10:44 | 48.42009 | 17.35732 | 35987 ft | 410 kts | 229° |
| 2026-05-07 10:44 | 48.38227 | 17.29297 | 35990 ft | 410 kts | 229° |
| 2026-05-07 10:45 | 48.34440 | 17.22870 | 35994 ft | 410 kts | 229° |
| 2026-05-07 10:45 | 48.30653 | 17.16455 | 35996 ft | 410 kts | 229° |
| 2026-05-07 10:46 | 48.26839 | 17.10009 | 35988 ft | 410 kts | 229° |
| 2026-05-07 10:46 | 48.23054 | 17.03626 | 35980 ft | 410 kts | 229° |
| 2026-05-07 10:47 | 48.19501 | 16.97299 | 35973 ft | 409 kts | 239° |
| 2026-05-07 10:47 | 48.17355 | 16.89410 | 35976 ft | 410 kts | 248° |
| 2026-05-07 10:48 | 48.15356 | 16.81415 | 35991 ft | 410 kts | 248° |
| 2026-05-07 10:48 | 48.13372 | 16.73418 | 35986 ft | 410 kts | 248° |
| 2026-05-07 10:49 | 48.11385 | 16.65427 | 36001 ft | 409 kts | 248° |
| 2026-05-07 10:49 | 48.09396 | 16.57452 | 35986 ft | 409 kts | 248° |
| 2026-05-07 10:50 | 48.07413 | 16.49532 | 35990 ft | 409 kts | 248° |
| 2026-05-07 10:50 | 48.05413 | 16.41572 | 35989 ft | 409 kts | 248° |
| 2026-05-07 10:51 | 48.03408 | 16.33618 | 35977 ft | 409 kts | 248° |
| 2026-05-07 10:51 | 48.01384 | 16.25619 | 35980 ft | 409 kts | 248° |
| 2026-05-07 10:52 | 47.99369 | 16.17685 | 35978 ft | 409 kts | 247° |
| 2026-05-07 10:52 | 47.97346 | 16.09747 | 35970 ft | 409 kts | 247° |
| 2026-05-07 10:53 | 47.95320 | 16.01821 | 35985 ft | 409 kts | 247° |
| 2026-05-07 10:53 | 47.93288 | 15.93899 | 35989 ft | 409 kts | 247° |
| 2026-05-07 10:54 | 47.91250 | 15.85985 | 35987 ft | 409 kts | 247° |
| 2026-05-07 10:54 | 47.89204 | 15.78065 | 35980 ft | 409 kts | 247° |
| 2026-05-07 10:55 | 47.87157 | 15.70170 | 35993 ft | 409 kts | 247° |
| 2026-05-07 10:55 | 47.85100 | 15.62263 | 35982 ft | 409 kts | 247° |
| 2026-05-07 10:56 | 47.83039 | 15.54366 | 35992 ft | 410 kts | 247° |
| 2026-05-07 10:56 | 47.80970 | 15.46465 | 35984 ft | 410 kts | 247° |
| 2026-05-07 10:57 | 47.78896 | 15.38576 | 35986 ft | 410 kts | 246° |
| 2026-05-07 10:57 | 47.76813 | 15.30679 | 35984 ft | 410 kts | 247° |
| 2026-05-07 10:58 | 47.74729 | 15.22802 | 35979 ft | 410 kts | 246° |
| 2026-05-07 10:58 | 47.72640 | 15.14933 | 35977 ft | 409 kts | 246° |
| 2026-05-07 10:59 | 47.70550 | 15.07082 | 35978 ft | 408 kts | 247° |
| 2026-05-07 10:59 | 47.68444 | 14.99194 | 35973 ft | 408 kts | 246° |
| 2026-05-07 11:00 | 47.66225 | 14.91472 | 35982 ft | 405 kts | 243° |
| 2026-05-07 11:00 | 47.63826 | 14.83905 | 35970 ft | 405 kts | 243° |
| 2026-05-07 11:01 | 47.61453 | 14.76350 | 35970 ft | 404 kts | 244° |
| 2026-05-07 11:01 | 47.59078 | 14.68802 | 35978 ft | 403 kts | 244° |
| 2026-05-07 11:02 | 47.56710 | 14.61293 | 35990 ft | 402 kts | 244° |
| 2026-05-07 11:02 | 47.54342 | 14.53812 | 35988 ft | 399 kts | 244° |
| 2026-05-07 11:03 | 47.51986 | 14.46388 | 35975 ft | 399 kts | 243° |
| 2026-05-07 11:03 | 47.49621 | 14.38956 | 35957 ft | 398 kts | 243° |
| 2026-05-07 11:04 | 47.47263 | 14.31570 | 35996 ft | 398 kts | 243° |
| 2026-05-07 11:04 | 47.44902 | 14.24197 | 35982 ft | 396 kts | 243° |
| 2026-05-07 11:05 | 47.42539 | 14.16838 | 35992 ft | 396 kts | 243° |
| 2026-05-07 11:05 | 47.40170 | 14.09478 | 35983 ft | 397 kts | 243° |
| 2026-05-07 11:06 | 47.37807 | 14.02163 | 35973 ft | 395 kts | 243° |
| 2026-05-07 11:06 | 47.35433 | 13.94833 | 35975 ft | 395 kts | 243° |
| 2026-05-07 11:07 | 47.33047 | 13.87487 | 35965 ft | 394 kts | 243° |
| 2026-05-07 11:07 | 47.30693 | 13.80257 | 35972 ft | 394 kts | 243° |
| 2026-05-07 11:08 | 47.28304 | 13.72937 | 35967 ft | 394 kts | 243° |
| 2026-05-07 11:08 | 47.25938 | 13.65653 | 35978 ft | 394 kts | 243° |
| 2026-05-07 11:09 | 47.23578 | 13.58366 | 35957 ft | 395 kts | 243° |
| 2026-05-07 11:09 | 47.21212 | 13.51081 | 35951 ft | 395 kts | 243° |
| 2026-05-07 11:10 | 47.18834 | 13.43781 | 35974 ft | 396 kts | 243° |
| 2026-05-07 11:10 | 47.16451 | 13.36482 | 35936 ft | 396 kts | 243° |
| 2026-05-07 11:11 | 47.14062 | 13.29193 | 35969 ft | 397 kts | 243° |
| 2026-05-07 11:11 | 47.11659 | 13.21875 | 35964 ft | 399 kts | 243° |
| 2026-05-07 11:12 | 47.09247 | 13.14553 | 35966 ft | 397 kts | 243° |
| 2026-05-07 11:12 | 47.06833 | 13.07246 | 35956 ft | 398 kts | 243° |
| 2026-05-07 11:13 | 47.04415 | 12.99948 | 35957 ft | 397 kts | 243° |
| 2026-05-07 11:13 | 47.01991 | 12.92654 | 35961 ft | 398 kts | 243° |
| 2026-05-07 11:14 | 46.99561 | 12.85356 | 35951 ft | 399 kts | 243° |
| 2026-05-07 11:14 | 46.97522 | 12.79253 | 35974 ft | 399 kts | 243° |
| 2026-05-07 11:15 | 46.95078 | 12.71955 | 35968 ft | 399 kts | 243° |
| 2026-05-07 11:15 | 46.92629 | 12.64664 | 35978 ft | 400 kts | 243° |
| 2026-05-07 11:16 | 46.90171 | 12.57365 | 35975 ft | 399 kts | 243° |
| 2026-05-07 11:16 | 46.87714 | 12.50089 | 36006 ft | 400 kts | 243° |
| 2026-05-07 11:17 | 46.85248 | 12.42807 | 36011 ft | 400 kts | 242° |
| 2026-05-07 11:17 | 46.82779 | 12.35532 | 36033 ft | 400 kts | 242° |
| 2026-05-07 11:18 | 46.80233 | 12.28306 | 36038 ft | 398 kts | 234° |
| 2026-05-07 11:18 | 46.76704 | 12.22073 | 36051 ft | 400 kts | 230° |
| 2026-05-07 11:19 | 46.73120 | 12.15857 | 36047 ft | 400 kts | 230° |
| 2026-05-07 11:19 | 46.69501 | 12.09645 | 36047 ft | 399 kts | 230° |
| 2026-05-07 11:20 | 46.65891 | 12.03470 | 36025 ft | 401 kts | 230° |
| 2026-05-07 11:20 | 46.62282 | 11.97312 | 36009 ft | 400 kts | 230° |
| 2026-05-07 11:21 | 46.58659 | 11.91143 | 36258 ft | 402 kts | 230° |
| 2026-05-07 11:21 | 46.56836 | 11.88046 | 36441 ft | 403 kts | 230° |
| 2026-05-07 11:21 | 46.55297 | 11.85431 | 36603 ft | 404 kts | 230° |
| 2026-05-07 11:22 | 46.53392 | 11.82200 | 36812 ft | 405 kts | 230° |
| 2026-05-07 11:22 | 46.51563 | 11.79102 | 36958 ft | 406 kts | 230° |
| 2026-05-07 11:22 | 46.47872 | 11.72860 | 36967 ft | 406 kts | 230° |
| 2026-05-07 11:23 | 46.44196 | 11.66657 | 36967 ft | 405 kts | 230° |
| 2026-05-07 11:23 | 46.40511 | 11.60452 | 36997 ft | 407 kts | 230° |
| 2026-05-07 11:24 | 46.36826 | 11.54263 | 36971 ft | 404 kts | 230° |
| 2026-05-07 11:24 | 46.33112 | 11.48038 | 36975 ft | 407 kts | 230° |
| 2026-05-07 11:25 | 46.29410 | 11.41845 | 36969 ft | 407 kts | 230° |
| 2026-05-07 11:25 | 46.25751 | 11.35618 | 37023 ft | 407 kts | 234° |
| 2026-05-07 11:26 | 46.22391 | 11.29047 | 37044 ft | 407 kts | 233° |
| 2026-05-07 11:26 | 46.18990 | 11.22523 | 37045 ft | 407 kts | 233° |
| 2026-05-07 11:27 | 46.15571 | 11.16001 | 37028 ft | 407 kts | 233° |
| 2026-05-07 11:27 | 46.12151 | 11.09493 | 37026 ft | 407 kts | 233° |
| 2026-05-07 11:28 | 46.08730 | 11.02998 | 37019 ft | 407 kts | 233° |
| 2026-05-07 11:28 | 46.05302 | 10.96506 | 37009 ft | 407 kts | 233° |
| 2026-05-07 11:29 | 46.01874 | 10.90028 | 37014 ft | 407 kts | 233° |
| 2026-05-07 11:29 | 45.98436 | 10.83547 | 36990 ft | 407 kts | 233° |
| 2026-05-07 11:30 | 45.94995 | 10.77074 | 36968 ft | 406 kts | 233° |
| 2026-05-07 11:30 | 45.91561 | 10.70628 | 36951 ft | 407 kts | 233° |
| 2026-05-07 11:31 | 45.88109 | 10.64166 | 36969 ft | 407 kts | 232° |
| 2026-05-07 11:31 | 45.84642 | 10.57689 | 37004 ft | 406 kts | 232° |
| 2026-05-07 11:32 | 45.79492 | 10.48098 | 36967 ft | 405 kts | 232° |
| 2026-05-07 11:33 | 45.76045 | 10.41694 | 37002 ft | 406 kts | 232° |
| 2026-05-07 11:33 | 45.72603 | 10.35317 | 36975 ft | 404 kts | 232° |
| 2026-05-07 11:34 | 45.69150 | 10.28930 | 36964 ft | 405 kts | 232° |
| 2026-05-07 11:34 | 45.65703 | 10.22572 | 36970 ft | 405 kts | 232° |
| 2026-05-07 11:35 | 45.62253 | 10.16222 | 36963 ft | 405 kts | 232° |
| 2026-05-07 11:35 | 45.58796 | 10.09872 | 36961 ft | 404 kts | 232° |
| 2026-05-07 11:36 | 45.55389 | 10.03629 | 36983 ft | 405 kts | 232° |
| 2026-05-07 11:36 | 45.51943 | 9.97329 | 36965 ft | 404 kts | 232° |
| 2026-05-07 11:37 | 45.48540 | 9.91120 | 36980 ft | 405 kts | 232° |
| 2026-05-07 11:37 | 45.45065 | 9.84795 | 36986 ft | 405 kts | 232° |
| 2026-05-07 11:38 | 45.41593 | 9.78487 | 37033 ft | 405 kts | 232° |
| 2026-05-07 11:38 | 45.38111 | 9.72178 | 37041 ft | 405 kts | 232° |
| 2026-05-07 11:39 | 45.34608 | 9.65843 | 37033 ft | 405 kts | 232° |
| 2026-05-07 11:39 | 45.31121 | 9.59552 | 37037 ft | 405 kts | 232° |
| 2026-05-07 11:40 | 45.27634 | 9.53276 | 36988 ft | 405 kts | 232° |
| 2026-05-07 11:40 | 45.24138 | 9.46997 | 36999 ft | 405 kts | 232° |
| 2026-05-07 11:41 | 45.20643 | 9.40733 | 36987 ft | 405 kts | 232° |
| 2026-05-07 11:41 | 45.17135 | 9.34460 | 36982 ft | 406 kts | 232° |
| 2026-05-07 11:42 | 45.13626 | 9.28197 | 36989 ft | 406 kts | 232° |
| 2026-05-07 11:42 | 45.10112 | 9.21942 | 36990 ft | 406 kts | 232° |
| 2026-05-07 11:43 | 45.06589 | 9.15683 | 36993 ft | 406 kts | 232° |
| 2026-05-07 11:43 | 45.03066 | 9.09440 | 36986 ft | 407 kts | 232° |
| 2026-05-07 11:44 | 44.99534 | 9.03192 | 36999 ft | 407 kts | 232° |
| 2026-05-07 11:44 | 44.95997 | 8.96950 | 36990 ft | 407 kts | 232° |
| 2026-05-07 11:45 | 44.92460 | 8.90722 | 36991 ft | 407 kts | 232° |
| 2026-05-07 11:45 | 44.88922 | 8.84504 | 36995 ft | 407 kts | 232° |
| 2026-05-07 11:46 | 44.85948 | 8.79290 | 37001 ft | 407 kts | 232° |
| 2026-05-07 11:46 | 44.81822 | 8.72073 | 36996 ft | 407 kts | 232° |
| 2026-05-07 11:47 | 44.78846 | 8.66876 | 37000 ft | 407 kts | 232° |
| 2026-05-07 11:47 | 44.75291 | 8.60681 | 36990 ft | 407 kts | 232° |
| 2026-05-07 11:48 | 44.71735 | 8.54499 | 36994 ft | 407 kts | 232° |
| 2026-05-07 11:48 | 44.68178 | 8.48329 | 36987 ft | 406 kts | 233° |
| 2026-05-07 11:49 | 44.64593 | 8.42122 | 36990 ft | 411 kts | 233° |
| 2026-05-07 11:49 | 44.60982 | 8.35884 | 36994 ft | 411 kts | 233° |
| 2026-05-07 11:50 | 44.57377 | 8.29670 | 36989 ft | 410 kts | 233° |
| 2026-05-07 11:50 | 44.53768 | 8.23465 | 36989 ft | 411 kts | 233° |
| 2026-05-07 11:51 | 44.50161 | 8.17275 | 36978 ft | 410 kts | 233° |
| 2026-05-07 11:51 | 44.46552 | 8.11093 | 36990 ft | 410 kts | 233° |
| 2026-05-07 11:52 | 44.42916 | 8.04876 | 36982 ft | 410 kts | 233° |
| 2026-05-07 11:52 | 44.39304 | 7.98713 | 36988 ft | 410 kts | 233° |
| 2026-05-07 11:53 | 44.35689 | 7.92559 | 36991 ft | 410 kts | 233° |
| 2026-05-07 11:53 | 44.32067 | 7.86404 | 36996 ft | 410 kts | 233° |
| 2026-05-07 11:54 | 44.28440 | 7.80255 | 36986 ft | 410 kts | 233° |
| 2026-05-07 11:54 | 44.25200 | 7.73752 | 36986 ft | 408 kts | 239° |
| 2026-05-07 11:55 | 44.22086 | 7.67140 | 36981 ft | 409 kts | 238° |
| 2026-05-07 11:55 | 44.18936 | 7.60538 | 36987 ft | 409 kts | 238° |
| 2026-05-07 11:56 | 44.15778 | 7.53951 | 36974 ft | 408 kts | 238° |
| 2026-05-07 11:56 | 44.12614 | 7.47361 | 36961 ft | 409 kts | 238° |
| 2026-05-07 11:57 | 44.09435 | 7.40759 | 36980 ft | 408 kts | 238° |
| 2026-05-07 11:57 | 44.06266 | 7.34190 | 36963 ft | 408 kts | 238° |
| 2026-05-07 11:58 | 44.03101 | 7.27646 | 36963 ft | 408 kts | 238° |
| 2026-05-07 11:58 | 44.00054 | 7.21358 | 36974 ft | 408 kts | 238° |
| 2026-05-07 11:59 | 43.96882 | 7.14826 | 36986 ft | 408 kts | 238° |
| 2026-05-07 11:59 | 43.93706 | 7.08303 | 36976 ft | 408 kts | 237° |
| 2026-05-07 12:00 | 43.90528 | 7.01786 | 36983 ft | 408 kts | 237° |
| 2026-05-07 12:00 | 43.87346 | 6.95281 | 36984 ft | 408 kts | 237° |
| 2026-05-07 12:01 | 43.84159 | 6.88778 | 36959 ft | 408 kts | 237° |
| 2026-05-07 12:01 | 43.80968 | 6.82279 | 36975 ft | 408 kts | 237° |
| 2026-05-07 12:02 | 43.77771 | 6.75785 | 36975 ft | 408 kts | 237° |
| 2026-05-07 12:02 | 43.74575 | 6.69306 | 36957 ft | 408 kts | 237° |
| 2026-05-07 12:03 | 43.71374 | 6.62833 | 36974 ft | 408 kts | 237° |
| 2026-05-07 12:03 | 43.68174 | 6.56373 | 36963 ft | 408 kts | 237° |
| 2026-05-07 12:04 | 43.64968 | 6.49918 | 36964 ft | 408 kts | 237° |
| 2026-05-07 12:04 | 43.61736 | 6.43425 | 36964 ft | 407 kts | 237° |
| 2026-05-07 12:05 | 43.58545 | 6.37026 | 36958 ft | 407 kts | 237° |
| 2026-05-07 12:05 | 43.55306 | 6.30547 | 36963 ft | 407 kts | 237° |
| 2026-05-07 12:06 | 43.52092 | 6.24132 | 36967 ft | 408 kts | 236° |
| 2026-05-07 12:06 | 43.48869 | 6.17712 | 36963 ft | 407 kts | 236° |
| 2026-05-07 12:07 | 43.45637 | 6.11289 | 36960 ft | 408 kts | 236° |
| 2026-05-07 12:07 | 43.42407 | 6.04883 | 36967 ft | 408 kts | 236° |
| 2026-05-07 12:08 | 43.39172 | 5.98484 | 36964 ft | 407 kts | 236° |
| 2026-05-07 12:08 | 43.35933 | 5.92086 | 36971 ft | 407 kts | 236° |
| 2026-05-07 12:09 | 43.32694 | 5.85706 | 36973 ft | 407 kts | 236° |
| 2026-05-07 12:09 | 43.29454 | 5.79335 | 36975 ft | 407 kts | 236° |
| 2026-05-07 12:10 | 43.26208 | 5.72970 | 36978 ft | 407 kts | 236° |
| 2026-05-07 12:10 | 43.22958 | 5.66607 | 36981 ft | 407 kts | 236° |
| 2026-05-07 12:11 | 43.19713 | 5.60268 | 36982 ft | 407 kts | 236° |
| 2026-05-07 12:11 | 43.16436 | 5.53880 | 36988 ft | 407 kts | 236° |
| 2026-05-07 12:12 | 43.13197 | 5.47582 | 36992 ft | 406 kts | 236° |
| 2026-05-07 12:12 | 43.09922 | 5.41225 | 36993 ft | 406 kts | 236° |
| 2026-05-07 12:13 | 43.06658 | 5.34903 | 36996 ft | 406 kts | 236° |
| 2026-05-07 12:13 | 43.03398 | 5.28604 | 37000 ft | 406 kts | 236° |
| 2026-05-07 12:14 | 43.00129 | 5.22301 | 37003 ft | 406 kts | 235° |
| 2026-05-07 12:14 | 42.96861 | 5.16011 | 37002 ft | 406 kts | 235° |
| 2026-05-07 12:15 | 42.93587 | 5.09724 | 37001 ft | 406 kts | 235° |
| 2026-05-07 12:15 | 42.90314 | 5.03452 | 37003 ft | 406 kts | 235° |
| 2026-05-07 12:16 | 42.87035 | 4.97182 | 37003 ft | 406 kts | 235° |
| 2026-05-07 12:16 | 42.83755 | 4.90923 | 37003 ft | 406 kts | 235° |
| 2026-05-07 12:17 | 42.80475 | 4.84678 | 37008 ft | 405 kts | 235° |
| 2026-05-07 12:17 | 42.77187 | 4.78429 | 37006 ft | 405 kts | 235° |
| 2026-05-07 12:18 | 42.73903 | 4.72203 | 37007 ft | 405 kts | 235° |
| 2026-05-07 12:18 | 42.70612 | 4.65977 | 37008 ft | 405 kts | 235° |
| 2026-05-07 12:19 | 42.67852 | 4.60763 | 37007 ft | 405 kts | 234° |
| 2026-05-07 12:19 | 42.64558 | 4.54552 | 37011 ft | 405 kts | 234° |
| 2026-05-07 12:20 | 42.61262 | 4.48354 | 37012 ft | 405 kts | 234° |
| 2026-05-07 12:20 | 42.57960 | 4.42154 | 37011 ft | 405 kts | 234° |
| 2026-05-07 12:21 | 42.54663 | 4.35977 | 37013 ft | 404 kts | 234° |
| 2026-05-07 12:21 | 42.51361 | 4.29805 | 37011 ft | 404 kts | 234° |
| 2026-05-07 12:22 | 42.48054 | 4.23635 | 37008 ft | 404 kts | 234° |
| 2026-05-07 12:22 | 42.44756 | 4.17493 | 37013 ft | 404 kts | 234° |
| 2026-05-07 12:23 | 42.41445 | 4.11337 | 37016 ft | 404 kts | 234° |
| 2026-05-07 12:23 | 42.38119 | 4.05166 | 37015 ft | 403 kts | 234° |
| 2026-05-07 12:24 | 42.34809 | 3.99037 | 37014 ft | 403 kts | 234° |
| 2026-05-07 12:24 | 42.31497 | 3.92915 | 37015 ft | 403 kts | 234° |
| 2026-05-07 12:25 | 42.28185 | 3.86807 | 37014 ft | 403 kts | 234° |
| 2026-05-07 12:25 | 42.25090 | 3.80534 | 37015 ft | 402 kts | 239° |
| 2026-05-07 12:26 | 42.22312 | 3.73982 | 37013 ft | 403 kts | 239° |
| 2026-05-07 12:26 | 42.19565 | 3.67453 | 36259 ft | 399 kts | 239° |
| 2026-05-07 12:26 | 42.18187 | 3.64181 | 35530 ft | 400 kts | 239° |
| 2026-05-07 12:27 | 42.16815 | 3.60923 | 34864 ft | 399 kts | 239° |
| 2026-05-07 12:27 | 42.15451 | 3.57690 | 34338 ft | 395 kts | 239° |
| 2026-05-07 12:27 | 42.14097 | 3.54483 | 33778 ft | 392 kts | 239° |
| 2026-05-07 12:27 | 42.12755 | 3.51307 | 33170 ft | 388 kts | 239° |
| 2026-05-07 12:28 | 42.11423 | 3.48159 | 32629 ft | 384 kts | 239° |
| 2026-05-07 12:28 | 42.10111 | 3.45062 | 32109 ft | 380 kts | 239° |
| 2026-05-07 12:28 | 42.08806 | 3.41983 | 31602 ft | 376 kts | 239° |
| 2026-05-07 12:28 | 42.07514 | 3.38939 | 31090 ft | 373 kts | 239° |
| 2026-05-07 12:29 | 42.06233 | 3.35924 | 30577 ft | 370 kts | 239° |
| 2026-05-07 12:29 | 42.04958 | 3.32925 | 30074 ft | 367 kts | 239° |
| 2026-05-07 12:29 | 42.03693 | 3.29954 | 29494 ft | 365 kts | 239° |
| 2026-05-07 12:29 | 42.02436 | 3.27005 | 28972 ft | 362 kts | 239° |
| 2026-05-07 12:30 | 42.01193 | 3.24089 | 28482 ft | 358 kts | 239° |
| 2026-05-07 12:30 | 41.99954 | 3.21191 | 28002 ft | 355 kts | 239° |
| 2026-05-07 12:30 | 41.98714 | 3.18289 | 27522 ft | 352 kts | 239° |
| 2026-05-07 12:30 | 41.97498 | 3.15446 | 27067 ft | 350 kts | 239° |
| 2026-05-07 12:31 | 41.96291 | 3.12629 | 26584 ft | 348 kts | 239° |
| 2026-05-07 12:31 | 41.95088 | 3.09822 | 26128 ft | 346 kts | 239° |
| 2026-05-07 12:31 | 41.93889 | 3.07026 | 25676 ft | 345 kts | 239° |
| 2026-05-07 12:31 | 41.92690 | 3.04236 | 25228 ft | 346 kts | 239° |
| 2026-05-07 12:32 | 41.91482 | 3.01424 | 24768 ft | 350 kts | 239° |
| 2026-05-07 12:32 | 41.90258 | 2.98579 | 24330 ft | 353 kts | 239° |
| 2026-05-07 12:32 | 41.89028 | 2.95725 | 23885 ft | 354 kts | 239° |
| 2026-05-07 12:32 | 41.87794 | 2.92862 | 23423 ft | 353 kts | 239° |
| 2026-05-07 12:33 | 41.85339 | 2.87177 | 22479 ft | 350 kts | 239° |
| 2026-05-07 12:33 | 41.84126 | 2.84369 | 22065 ft | 347 kts | 239° |
| 2026-05-07 12:33 | 41.82919 | 2.81583 | 21658 ft | 344 kts | 239° |
| 2026-05-07 12:34 | 41.81724 | 2.78821 | 21254 ft | 342 kts | 239° |
| 2026-05-07 12:34 | 41.80535 | 2.76082 | 20863 ft | 339 kts | 239° |
| 2026-05-07 12:34 | 41.79351 | 2.73352 | 20471 ft | 337 kts | 239° |
| 2026-05-07 12:34 | 41.78176 | 2.70648 | 20093 ft | 335 kts | 239° |
| 2026-05-07 12:35 | 41.77009 | 2.67962 | 19717 ft | 333 kts | 239° |
| 2026-05-07 12:35 | 41.75844 | 2.65286 | 19345 ft | 331 kts | 239° |
| 2026-05-07 12:35 | 41.74687 | 2.62630 | 18975 ft | 329 kts | 239° |
| 2026-05-07 12:35 | 41.73534 | 2.59984 | 18610 ft | 328 kts | 239° |
| 2026-05-07 12:36 | 41.72380 | 2.57339 | 18225 ft | 331 kts | 238° |
| 2026-05-07 12:36 | 41.71211 | 2.54660 | 17795 ft | 335 kts | 238° |
| 2026-05-07 12:36 | 41.70034 | 2.51969 | 17417 ft | 335 kts | 238° |
| 2026-05-07 12:36 | 41.68857 | 2.49276 | 17046 ft | 334 kts | 238° |
| 2026-05-07 12:37 | 41.67683 | 2.46597 | 16673 ft | 333 kts | 238° |
| 2026-05-07 12:37 | 41.66499 | 2.43895 | 16299 ft | 331 kts | 238° |
| 2026-05-07 12:37 | 41.65351 | 2.41276 | 15945 ft | 330 kts | 238° |
| 2026-05-07 12:37 | 41.64177 | 2.38602 | 15575 ft | 328 kts | 238° |
| 2026-05-07 12:38 | 41.63024 | 2.35980 | 15214 ft | 326 kts | 238° |
| 2026-05-07 12:38 | 41.61880 | 2.33378 | 14859 ft | 324 kts | 238° |
| 2026-05-07 12:38 | 41.60745 | 2.30799 | 14510 ft | 321 kts | 238° |
| 2026-05-07 12:38 | 41.59615 | 2.28233 | 14156 ft | 319 kts | 238° |
| 2026-05-07 12:39 | 41.58491 | 2.25684 | 13793 ft | 317 kts | 238° |
| 2026-05-07 12:39 | 41.57374 | 2.23152 | 13406 ft | 315 kts | 238° |
| 2026-05-07 12:39 | 41.56264 | 2.20637 | 13038 ft | 313 kts | 238° |
| 2026-05-07 12:39 | 41.55248 | 2.18337 | 12717 ft | 310 kts | 239° |
| 2026-05-07 12:40 | 41.54157 | 2.15869 | 12379 ft | 307 kts | 239° |
| 2026-05-07 12:40 | 41.53074 | 2.13419 | 12038 ft | 304 kts | 239° |
| 2026-05-07 12:40 | 41.51996 | 2.10998 | 11695 ft | 302 kts | 238° |
| 2026-05-07 12:40 | 41.50897 | 2.08605 | 11329 ft | 305 kts | 238° |
| 2026-05-07 12:41 | 41.49780 | 2.06169 | 11001 ft | 310 kts | 238° |
| 2026-05-07 12:41 | 41.48654 | 2.03711 | 10659 ft | 311 kts | 239° |
| 2026-05-07 12:41 | 41.47530 | 2.01258 | 10425 ft | 306 kts | 239° |
| 2026-05-07 12:41 | 41.46436 | 1.98870 | 10290 ft | 298 kts | 239° |
| 2026-05-07 12:42 | 41.45371 | 1.96550 | 10138 ft | 290 kts | 239° |
| 2026-05-07 12:42 | 41.44332 | 1.94288 | 9928 ft | 284 kts | 239° |
| 2026-05-07 12:42 | 41.43307 | 1.92056 | 9607 ft | 282 kts | 239° |
| 2026-05-07 12:42 | 41.42288 | 1.89840 | 9295 ft | 279 kts | 239° |
| 2026-05-07 12:43 | 41.41277 | 1.87642 | 9011 ft | 277 kts | 239° |
| 2026-05-07 12:43 | 41.40275 | 1.85465 | 8721 ft | 274 kts | 239° |
| 2026-05-07 12:43 | 41.39289 | 1.83326 | 8544 ft | 267 kts | 239° |
| 2026-05-07 12:43 | 41.38332 | 1.81249 | 8428 ft | 258 kts | 239° |
| 2026-05-07 12:44 | 41.37409 | 1.79248 | 8292 ft | 250 kts | 239° |
| 2026-05-07 12:44 | 41.36510 | 1.77301 | 8161 ft | 242 kts | 238° |
| 2026-05-07 12:44 | 41.35628 | 1.75406 | 8000 ft | 236 kts | 236° |
| 2026-05-07 12:44 | 41.34424 | 1.73908 | 7596 ft | 243 kts | 207° |
| 2026-05-07 12:45 | 41.32808 | 1.73337 | 7171 ft | 248 kts | 180° |
| 2026-05-07 12:45 | 41.31095 | 1.73800 | 6759 ft | 251 kts | 157° |
| 2026-05-07 12:45 | 41.29474 | 1.74726 | 6331 ft | 257 kts | 156° |
| 2026-05-07 12:45 | 41.27815 | 1.75692 | 5848 ft | 263 kts | 155° |
| 2026-05-07 12:46 | 41.26150 | 1.76769 | 5353 ft | 269 kts | 146° |
| 2026-05-07 12:46 | 41.24643 | 1.78277 | 4841 ft | 273 kts | 141° |
| 2026-05-07 12:46 | 41.23157 | 1.79823 | 4355 ft | 270 kts | 141° |
| 2026-05-07 12:46 | 41.21919 | 1.81623 | 3939 ft | 260 kts | 118° |
| 2026-05-07 12:47 | 41.21426 | 1.83834 | 3700 ft | 246 kts | 92° |
| 2026-05-07 12:47 | 41.21736 | 1.85991 | 3460 ft | 231 kts | 65° |
| 2026-05-07 12:47 | 41.22609 | 1.87683 | 3210 ft | 215 kts | 56° |
| 2026-05-07 12:47 | 41.23370 | 1.89324 | 2926 ft | 202 kts | 65° |
| 2026-05-07 12:48 | 41.23943 | 1.90969 | 2667 ft | 192 kts | 68° |
| 2026-05-07 12:48 | 41.24478 | 1.92565 | 2431 ft | 187 kts | 68° |
| 2026-05-07 12:48 | 41.25007 | 1.94118 | 2187 ft | 183 kts | 68° |
| 2026-05-07 12:48 | 41.25533 | 1.95649 | 1930 ft | 179 kts | 69° |
| 2026-05-07 12:49 | 41.26038 | 1.97126 | 1705 ft | 172 kts | 69° |
| 2026-05-07 12:49 | 41.26527 | 1.98558 | 1484 ft | 169 kts | 68° |
| 2026-05-07 12:49 | 41.27009 | 1.99963 | 1248 ft | 160 kts | 68° |
| 2026-05-07 12:49 | 41.27164 | 2.00412 | 1202 ft | 156 kts | 69° |
| 2026-05-07 12:50 | 41.27584 | 2.01648 | 1027 ft | 145 kts | 68° |
| 2026-05-07 12:50 | 41.28009 | 2.02856 | 775 ft | 143 kts | 69° |
| 2026-05-07 12:51 | 41.28284 | 2.03661 | 615 ft | 141 kts | 68° |
| 2026-05-07 12:51 | 41.28695 | 2.04875 | 426 ft | 145 kts | 70° |
| 2026-05-07 12:51 | 41.29097 | 2.06064 | 254 ft | 138 kts | 70° |
| 2026-05-07 12:51 | 41.29490 | 2.07208 | 56 ft | 133 kts | 70° |
| 2026-05-07 12:52 | 41.29842 | 2.08243 | 26 ft | 106 kts | 65° |
| 2026-05-07 12:52 | 41.30088 | 2.08958 | 22 ft | 63 kts | 66° |
| 2026-05-07 12:52 | 41.30211 | 2.09301 | 19 ft | 25 kts | 57° |
| 2026-05-07 12:52 | 41.30327 | 2.09470 | 19 ft | 26 kts | 38° |
| 2026-05-07 12:53 | 41.30424 | 2.09537 | 20 ft | 11 kts | 351° |
| 2026-05-07 12:53 | 41.30496 | 2.09481 | 21 ft | 12 kts | 287° |
| 2026-05-07 12:53 | 41.30476 | 2.09367 | 23 ft | 14 kts | 244° |
| 2026-05-07 12:53 | 41.30432 | 2.09239 | 23 ft | 16 kts | 246° |
| 2026-05-07 12:54 | 41.30382 | 2.09091 | 23 ft | 19 kts | 245° |
| 2026-05-07 12:54 | 41.30322 | 2.08918 | 23 ft | 22 kts | 245° |
| 2026-05-07 12:54 | 41.30255 | 2.08725 | 24 ft | 24 kts | 245° |
| 2026-05-07 12:54 | 41.30185 | 2.08515 | 25 ft | 26 kts | 245° |
| 2026-05-07 12:55 | 41.30112 | 2.08304 | 22 ft | 15 kts | 245° |
| 2026-05-07 12:55 | 41.30123 | 2.08217 | 21 ft | 12 kts | 325° |
| 2026-05-07 12:55 | 41.30189 | 2.08158 | 21 ft | 10 kts | 290° |
| 2026-05-07 12:55 | 41.30176 | 2.08073 | 23 ft | 7 kts | 266° |
| 2026-05-07 12:56 | 41.30206 | 2.08033 | 22 ft | 7 kts | 355° |
| 2026-05-07 12:56 | 41.30233 | 2.08035 | 23 ft | 3 kts | 5° |
| 2026-05-07 12:56 | 41.30242 | 2.08037 | 24 ft | 0 kts | 5° |